sensor_id;sensor_type;location;lat;lon;timestamp;pressure;altitude;pressure_sealevel;temperature;humidity
3654;BME280;70277;54.302;10.064;2024-01-06T00:02:02;100471.34;;;1.87;79.24
3654;BME280;70277;54.302;10.064;2024-01-06T00:04:29;100468.38;;;1.69;79.70
3654;BME280;70277;54.302;10.064;2024-01-06T00:06:55;100469.22;;;1.76;79.60
3654;BME280;70277;54.302;10.064;2024-01-06T00:09:22;100474.41;;;1.84;79.33
3654;BME280;70277;54.302;10.064;2024-01-06T00:11:48;100476.66;;;1.87;79.43
3654;BME280;70277;54.302;10.064;2024-01-06T00:14:15;100471.38;;;2.00;78.95
3654;BME280;70277;54.302;10.064;2024-01-06T00:16:41;100493.69;;;2.34;78.89
3654;BME280;70277;54.302;10.064;2024-01-06T00:19:08;100484.00;;;2.33;78.00
3654;BME280;70277;54.302;10.064;2024-01-06T00:21:35;100494.41;;;2.01;79.73
3654;BME280;70277;54.302;10.064;2024-01-06T00:24:01;100488.28;;;2.14;79.49
3654;BME280;70277;54.302;10.064;2024-01-06T00:26:28;100498.22;;;1.92;80.50
3654;BME280;70277;54.302;10.064;2024-01-06T00:28:54;100492.13;;;1.98;79.13
3654;BME280;70277;54.302;10.064;2024-01-06T00:31:22;100498.66;;;2.50;78.13
3654;BME280;70277;54.302;10.064;2024-01-06T00:33:49;100478.97;;;2.03;79.05
3654;BME280;70277;54.302;10.064;2024-01-06T00:36:15;100490.84;;;1.88;79.97
3654;BME280;70277;54.302;10.064;2024-01-06T00:38:42;100490.69;;;2.02;79.76
3654;BME280;70277;54.302;10.064;2024-01-06T00:41:08;100500.66;;;2.28;79.73
3654;BME280;70277;54.302;10.064;2024-01-06T00:43:35;100487.75;;;1.84;79.74
3654;BME280;70277;54.302;10.064;2024-01-06T00:46:01;100501.38;;;2.09;79.48
3654;BME280;70277;54.302;10.064;2024-01-06T00:48:28;100493.94;;;1.98;79.47
3654;BME280;70277;54.302;10.064;2024-01-06T00:50:54;100494.41;;;2.01;79.00
3654;BME280;70277;54.302;10.064;2024-01-06T00:53:21;100496.97;;;2.36;78.37
3654;BME280;70277;54.302;10.064;2024-01-06T00:55:48;100506.00;;;2.35;77.82
3654;BME280;70277;54.302;10.064;2024-01-06T00:58:15;100512.75;;;1.83;80.01
3654;BME280;70277;54.302;10.064;2024-01-06T01:00:41;100518.47;;;2.15;80.18
3654;BME280;70277;54.302;10.064;2024-01-06T01:03:08;100506.31;;;2.12;79.66
3654;BME280;70277;54.302;10.064;2024-01-06T01:05:34;100518.19;;;2.03;79.10
3654;BME280;70277;54.302;10.064;2024-01-06T01:08:01;100522.88;;;1.94;80.57
3654;BME280;70277;54.302;10.064;2024-01-06T01:10:27;100519.41;;;2.00;80.54
3654;BME280;70277;54.302;10.064;2024-01-06T01:12:54;100527.22;;;1.95;80.04
3654;BME280;70277;54.302;10.064;2024-01-06T01:15:21;100524.72;;;1.94;80.23
3654;BME280;70277;54.302;10.064;2024-01-06T01:17:47;100526.03;;;2.11;79.52
3654;BME280;70277;54.302;10.064;2024-01-06T01:20:14;100531.69;;;1.95;80.22
3654;BME280;70277;54.302;10.064;2024-01-06T01:22:41;100522.88;;;1.94;80.67
3654;BME280;70277;54.302;10.064;2024-01-06T01:25:07;100526.59;;;2.00;80.81
3654;BME280;70277;54.302;10.064;2024-01-06T01:27:34;100526.88;;;2.12;80.78
3654;BME280;70277;54.302;10.064;2024-01-06T01:30:01;100533.41;;;2.09;80.55
3654;BME280;70277;54.302;10.064;2024-01-06T01:32:27;100527.66;;;2.05;80.63
3654;BME280;70277;54.302;10.064;2024-01-06T01:34:54;100536.84;;;1.96;81.03
3654;BME280;70277;54.302;10.064;2024-01-06T01:37:21;100534.22;;;2.03;80.50
3654;BME280;70277;54.302;10.064;2024-01-06T01:39:47;100543.41;;;1.94;80.55
3654;BME280;70277;54.302;10.064;2024-01-06T01:42:14;100551.03;;;1.97;80.25
3654;BME280;70277;54.302;10.064;2024-01-06T01:44:41;100548.06;;;1.78;81.27
3654;BME280;70277;54.302;10.064;2024-01-06T01:47:07;100541.66;;;1.73;80.65
3654;BME280;70277;54.302;10.064;2024-01-06T01:49:34;100539.00;;;2.21;80.09
3654;BME280;70277;54.302;10.064;2024-01-06T01:52:02;100545.03;;;1.95;80.27
3654;BME280;70277;54.302;10.064;2024-01-06T01:54:29;100546.88;;;1.88;79.76
3654;BME280;70277;54.302;10.064;2024-01-06T01:56:56;100548.59;;;2.02;79.79
3654;BME280;70277;54.302;10.064;2024-01-06T01:59:22;100548.88;;;1.79;79.96
3654;BME280;70277;54.302;10.064;2024-01-06T02:01:49;100541.53;;;1.88;79.89
3654;BME280;70277;54.302;10.064;2024-01-06T02:04:16;100556.31;;;1.90;79.63
3654;BME280;70277;54.302;10.064;2024-01-06T02:06:42;100559.16;;;1.82;80.72
3654;BME280;70277;54.302;10.064;2024-01-06T02:09:09;100553.44;;;2.33;78.32
3654;BME280;70277;54.302;10.064;2024-01-06T02:11:35;100557.31;;;2.24;78.97
3654;BME280;70277;54.302;10.064;2024-01-06T02:14:02;100559.00;;;2.32;78.90
3654;BME280;70277;54.302;10.064;2024-01-06T02:16:29;100565.31;;;1.82;79.65
3654;BME280;70277;54.302;10.064;2024-01-06T02:18:55;100560.53;;;2.13;78.70
3654;BME280;70277;54.302;10.064;2024-01-06T02:21:27;100561.53;;;2.60;78.22
3654;BME280;70277;54.302;10.064;2024-01-06T02:23:54;100570.91;;;2.36;78.08
3654;BME280;70277;54.302;10.064;2024-01-06T02:26:20;100570.88;;;2.22;78.29
3654;BME280;70277;54.302;10.064;2024-01-06T02:28:47;100565.44;;;2.09;78.94
3654;BME280;70277;54.302;10.064;2024-01-06T02:31:15;100572.72;;;1.87;78.95
3654;BME280;70277;54.302;10.064;2024-01-06T02:33:42;100568.75;;;2.11;78.46
3654;BME280;70277;54.302;10.064;2024-01-06T02:36:08;100573.03;;;2.47;77.18
3654;BME280;70277;54.302;10.064;2024-01-06T02:38:35;100575.13;;;2.58;77.13
3654;BME280;70277;54.302;10.064;2024-01-06T02:41:01;100579.72;;;2.30;77.08
3654;BME280;70277;54.302;10.064;2024-01-06T02:43:28;100591.06;;;2.38;78.03
3654;BME280;70277;54.302;10.064;2024-01-06T02:45:55;100578.75;;;2.37;78.04
3654;BME280;70277;54.302;10.064;2024-01-06T02:48:21;100594.28;;;2.27;78.07
3654;BME280;70277;54.302;10.064;2024-01-06T02:50:48;100590.47;;;2.01;78.79
3654;BME280;70277;54.302;10.064;2024-01-06T02:53:14;100590.13;;;2.18;78.51
3654;BME280;70277;54.302;10.064;2024-01-06T02:55:41;100599.72;;;2.05;78.50
3654;BME280;70277;54.302;10.064;2024-01-06T02:58:08;100590.59;;;1.58;79.46
3654;BME280;70277;54.302;10.064;2024-01-06T03:00:34;100590.00;;;1.91;78.68
3654;BME280;70277;54.302;10.064;2024-01-06T03:03:01;100604.28;;;2.12;78.50
3654;BME280;70277;54.302;10.064;2024-01-06T03:05:28;100592.53;;;1.71;78.97
3654;BME280;70277;54.302;10.064;2024-01-06T03:07:55;100595.25;;;1.78;79.02
3654;BME280;70277;54.302;10.064;2024-01-06T03:10:21;100590.34;;;1.53;79.38
3654;BME280;70277;54.302;10.064;2024-01-06T03:12:48;100598.13;;;1.83;78.98
3654;BME280;70277;54.302;10.064;2024-01-06T03:15:15;100595.28;;;1.85;78.29
3654;BME280;70277;54.302;10.064;2024-01-06T03:17:41;100597.34;;;1.89;78.29
3654;BME280;70277;54.302;10.064;2024-01-06T03:20:08;100592.47;;;1.93;78.53
3654;BME280;70277;54.302;10.064;2024-01-06T03:22:35;100603.34;;;1.91;78.73
3654;BME280;70277;54.302;10.064;2024-01-06T03:25:02;100597.41;;;1.96;78.84
3654;BME280;70277;54.302;10.064;2024-01-06T03:27:29;100595.09;;;2.21;78.27
3654;BME280;70277;54.302;10.064;2024-01-06T03:29:55;100605.84;;;2.34;77.47
3654;BME280;70277;54.302;10.064;2024-01-06T03:32:22;100604.94;;;2.62;76.71
3654;BME280;70277;54.302;10.064;2024-01-06T03:34:49;100602.63;;;2.52;76.93
3654;BME280;70277;54.302;10.064;2024-01-06T03:37:16;100605.44;;;2.37;76.97
3654;BME280;70277;54.302;10.064;2024-01-06T03:39:42;100618.28;;;2.20;78.27
3654;BME280;70277;54.302;10.064;2024-01-06T03:42:09;100613.84;;;2.34;78.27
3654;BME280;70277;54.302;10.064;2024-01-06T03:44:36;100608.09;;;1.96;78.78
3654;BME280;70277;54.302;10.064;2024-01-06T03:47:02;100618.72;;;2.24;78.39
3654;BME280;70277;54.302;10.064;2024-01-06T03:49:29;100628.16;;;2.20;78.55
3654;BME280;70277;54.302;10.064;2024-01-06T03:51:56;100630.69;;;2.00;78.86
3654;BME280;70277;54.302;10.064;2024-01-06T03:54:22;100636.00;;;1.93;79.25
3654;BME280;70277;54.302;10.064;2024-01-06T03:56:49;100635.75;;;2.16;78.94
3654;BME280;70277;54.302;10.064;2024-01-06T03:59:16;100636.81;;;2.22;78.29
3654;BME280;70277;54.302;10.064;2024-01-06T04:01:42;100637.13;;;2.12;79.47
3654;BME280;70277;54.302;10.064;2024-01-06T04:04:09;100641.00;;;2.10;78.84
3654;BME280;70277;54.302;10.064;2024-01-06T04:06:36;100643.22;;;1.99;80.08
3654;BME280;70277;54.302;10.064;2024-01-06T04:09:03;100649.09;;;1.88;79.50
3654;BME280;70277;54.302;10.064;2024-01-06T04:11:30;100638.66;;;1.93;80.18
3654;BME280;70277;54.302;10.064;2024-01-06T04:13:56;100653.41;;;1.61;79.91
3654;BME280;70277;54.302;10.064;2024-01-06T04:16:23;100653.56;;;1.81;79.91
3654;BME280;70277;54.302;10.064;2024-01-06T04:18:49;100654.19;;;1.83;79.21
3654;BME280;70277;54.302;10.064;2024-01-06T04:21:16;100656.97;;;1.96;78.84
3654;BME280;70277;54.302;10.064;2024-01-06T04:23:43;100647.66;;;1.92;79.24
3654;BME280;70277;54.302;10.064;2024-01-06T04:26:09;100663.22;;;1.82;79.63
3654;BME280;70277;54.302;10.064;2024-01-06T04:28:36;100652.56;;;1.89;79.07
3654;BME280;70277;54.302;10.064;2024-01-06T04:31:03;100665.09;;;1.88;79.35
3654;BME280;70277;54.302;10.064;2024-01-06T04:33:30;100659.03;;;2.01;79.27
3654;BME280;70277;54.302;10.064;2024-01-06T04:35:57;100664.56;;;1.99;79.52
3654;BME280;70277;54.302;10.064;2024-01-06T04:38:25;100666.94;;;2.16;79.19
3654;BME280;70277;54.302;10.064;2024-01-06T04:40:51;100659.13;;;2.14;78.64
3654;BME280;70277;54.302;10.064;2024-01-06T04:43:18;100668.63;;;2.23;78.51
3654;BME280;70277;54.302;10.064;2024-01-06T04:45:44;100673.28;;;1.58;80.55
3654;BME280;70277;54.302;10.064;2024-01-06T04:48:11;100685.59;;;1.81;80.44
3654;BME280;70277;54.302;10.064;2024-01-06T04:50:38;100689.97;;;1.67;80.54
3654;BME280;70277;54.302;10.064;2024-01-06T04:53:05;100700.56;;;1.82;80.38
3654;BME280;70277;54.302;10.064;2024-01-06T04:55:31;100696.47;;;1.58;80.85
3654;BME280;70277;54.302;10.064;2024-01-06T04:57:58;100691.41;;;1.91;79.88
3654;BME280;70277;54.302;10.064;2024-01-06T05:00:24;100714.16;;;1.87;80.21
3654;BME280;70277;54.302;10.064;2024-01-06T05:02:52;100707.63;;;2.18;78.81
3654;BME280;70277;54.302;10.064;2024-01-06T05:05:18;100691.44;;;1.70;79.45
3654;BME280;70277;54.302;10.064;2024-01-06T05:07:45;100715.13;;;1.58;80.58
3654;BME280;70277;54.302;10.064;2024-01-06T05:10:11;100700.59;;;1.61;79.68
3654;BME280;70277;54.302;10.064;2024-01-06T05:12:38;100701.50;;;1.74;79.78
3654;BME280;70277;54.302;10.064;2024-01-06T05:15:05;100725.09;;;1.71;79.57
3654;BME280;70277;54.302;10.064;2024-01-06T05:17:31;100722.41;;;1.71;79.58
3654;BME280;70277;54.302;10.064;2024-01-06T05:19:58;100725.34;;;1.76;79.43
3654;BME280;70277;54.302;10.064;2024-01-06T05:22:25;100730.25;;;1.72;79.79
3654;BME280;70277;54.302;10.064;2024-01-06T05:24:51;100733.84;;;1.65;79.74
3654;BME280;70277;54.302;10.064;2024-01-06T05:27:20;100732.38;;;1.41;80.24
3654;BME280;70277;54.302;10.064;2024-01-06T05:29:47;100745.56;;;1.64;80.14
3654;BME280;70277;54.302;10.064;2024-01-06T05:32:16;100741.16;;;1.77;80.15
3654;BME280;70277;54.302;10.064;2024-01-06T05:34:42;100742.81;;;1.78;79.58
3654;BME280;70277;54.302;10.064;2024-01-06T05:37:09;100753.88;;;1.97;79.58
3654;BME280;70277;54.302;10.064;2024-01-06T05:39:37;100758.13;;;1.70;80.05
3654;BME280;70277;54.302;10.064;2024-01-06T05:42:05;100746.06;;;1.52;79.74
3654;BME280;70277;54.302;10.064;2024-01-06T05:44:35;100760.91;;;1.40;80.84
3654;BME280;70277;54.302;10.064;2024-01-06T05:47:02;100762.31;;;1.57;80.45
3654;BME280;70277;54.302;10.064;2024-01-06T05:49:29;100770.94;;;1.59;80.21
3654;BME280;70277;54.302;10.064;2024-01-06T05:51:55;100784.06;;;1.76;79.92
3654;BME280;70277;54.302;10.064;2024-01-06T05:54:22;100779.91;;;1.73;80.67
3654;BME280;70277;54.302;10.064;2024-01-06T05:56:48;100789.88;;;1.86;80.40
3654;BME280;70277;54.302;10.064;2024-01-06T05:59:15;100803.09;;;1.51;80.67
3654;BME280;70277;54.302;10.064;2024-01-06T06:01:41;100793.50;;;1.57;80.08
3654;BME280;70277;54.302;10.064;2024-01-06T06:04:08;100803.31;;;1.56;80.13
3654;BME280;70277;54.302;10.064;2024-01-06T06:06:35;100805.47;;;1.46;80.28
3654;BME280;70277;54.302;10.064;2024-01-06T06:09:01;100813.28;;;1.48;79.98
3654;BME280;70277;54.302;10.064;2024-01-06T06:11:33;100809.63;;;1.49;80.29
3654;BME280;70277;54.302;10.064;2024-01-06T06:14:00;100807.47;;;1.59;79.88
3654;BME280;70277;54.302;10.064;2024-01-06T06:16:29;100827.22;;;1.65;79.60
3654;BME280;70277;54.302;10.064;2024-01-06T06:18:56;100810.22;;;1.66;80.50
3654;BME280;70277;54.302;10.064;2024-01-06T06:21:22;100827.97;;;1.58;80.10
3654;BME280;70277;54.302;10.064;2024-01-06T06:23:49;100824.19;;;1.68;79.40
3654;BME280;70277;54.302;10.064;2024-01-06T06:26:16;100823.81;;;1.71;79.77
3654;BME280;70277;54.302;10.064;2024-01-06T06:28:42;100835.38;;;1.78;79.11
3654;BME280;70277;54.302;10.064;2024-01-06T06:31:09;100827.28;;;2.08;79.14
3654;BME280;70277;54.302;10.064;2024-01-06T06:33:36;100837.09;;;1.86;79.10
3654;BME280;70277;54.302;10.064;2024-01-06T06:36:03;100832.84;;;1.70;79.67
3654;BME280;70277;54.302;10.064;2024-01-06T06:38:30;100853.38;;;1.54;79.77
3654;BME280;70277;54.302;10.064;2024-01-06T06:40:57;100852.38;;;1.41;79.87
3654;BME280;70277;54.302;10.064;2024-01-06T06:43:23;100853.63;;;1.59;79.61
3654;BME280;70277;54.302;10.064;2024-01-06T06:45:50;100853.53;;;1.68;79.29
3654;BME280;70277;54.302;10.064;2024-01-06T06:48:17;100854.34;;;1.68;79.01
3654;BME280;70277;54.302;10.064;2024-01-06T06:50:43;100867.03;;;1.81;78.98
3654;BME280;70277;54.302;10.064;2024-01-06T06:53:10;100864.91;;;1.76;78.53
3654;BME280;70277;54.302;10.064;2024-01-06T06:55:36;100865.97;;;1.61;78.88
3654;BME280;70277;54.302;10.064;2024-01-06T06:58:04;100884.75;;;1.89;77.95
3654;BME280;70277;54.302;10.064;2024-01-06T07:00:32;100879.50;;;1.95;78.05
3654;BME280;70277;54.302;10.064;2024-01-06T07:02:58;100882.78;;;1.76;78.50
3654;BME280;70277;54.302;10.064;2024-01-06T07:05:26;100891.75;;;1.90;78.02
3654;BME280;70277;54.302;10.064;2024-01-06T07:07:53;100900.56;;;1.69;78.59
3654;BME280;70277;54.302;10.064;2024-01-06T07:10:19;100898.19;;;1.95;77.50
3654;BME280;70277;54.302;10.064;2024-01-06T07:12:46;100901.59;;;1.89;77.77
3654;BME280;70277;54.302;10.064;2024-01-06T07:15:12;100909.03;;;1.57;78.86
3654;BME280;70277;54.302;10.064;2024-01-06T07:17:39;100900.81;;;2.10;77.06
3654;BME280;70277;54.302;10.064;2024-01-06T07:20:06;100913.81;;;1.98;77.18
3654;BME280;70277;54.302;10.064;2024-01-06T07:22:34;100920.56;;;2.16;76.41
3654;BME280;70277;54.302;10.064;2024-01-06T07:25:03;100906.59;;;1.63;77.69
3654;BME280;70277;54.302;10.064;2024-01-06T07:27:30;100918.56;;;1.81;77.63
3654;BME280;70277;54.302;10.064;2024-01-06T07:29:56;100919.09;;;1.77;77.47
3654;BME280;70277;54.302;10.064;2024-01-06T07:32:23;100923.03;;;1.96;77.23
3654;BME280;70277;54.302;10.064;2024-01-06T07:34:51;100920.88;;;1.70;77.38
3654;BME280;70277;54.302;10.064;2024-01-06T07:37:17;100936.41;;;2.17;76.13
3654;BME280;70277;54.302;10.064;2024-01-06T07:39:44;100919.13;;;2.13;76.19
3654;BME280;70277;54.302;10.064;2024-01-06T07:42:10;100933.59;;;1.89;76.68
3654;BME280;70277;54.302;10.064;2024-01-06T07:44:37;100953.75;;;1.92;76.47
3654;BME280;70277;54.302;10.064;2024-01-06T07:47:03;100943.31;;;1.75;77.70
3654;BME280;70277;54.302;10.064;2024-01-06T07:49:31;100950.66;;;1.88;76.98
3654;BME280;70277;54.302;10.064;2024-01-06T07:51:58;100940.75;;;2.03;77.07
3654;BME280;70277;54.302;10.064;2024-01-06T07:54:25;100949.25;;;1.92;77.19
3654;BME280;70277;54.302;10.064;2024-01-06T07:56:52;100944.03;;;1.84;77.64
3654;BME280;70277;54.302;10.064;2024-01-06T07:59:18;100959.31;;;1.90;77.39
3654;BME280;70277;54.302;10.064;2024-01-06T08:01:45;100969.34;;;2.24;76.39
3654;BME280;70277;54.302;10.064;2024-01-06T08:04:11;100969.03;;;1.98;76.93
3654;BME280;70277;54.302;10.064;2024-01-06T08:06:38;100965.06;;;2.09;77.25
3654;BME280;70277;54.302;10.064;2024-01-06T08:09:04;100969.34;;;1.88;77.88
3654;BME280;70277;54.302;10.064;2024-01-06T08:11:32;100961.81;;;2.28;76.80
3654;BME280;70277;54.302;10.064;2024-01-06T08:13:58;100977.56;;;2.23;76.51
3654;BME280;70277;54.302;10.064;2024-01-06T08:16:25;100982.03;;;2.37;75.92
3654;BME280;70277;54.302;10.064;2024-01-06T08:18:51;100980.63;;;2.63;75.69
3654;BME280;70277;54.302;10.064;2024-01-06T08:21:18;100991.81;;;2.15;76.52
3654;BME280;70277;54.302;10.064;2024-01-06T08:23:45;100988.44;;;2.07;76.39
3654;BME280;70277;54.302;10.064;2024-01-06T08:26:12;100999.44;;;1.67;77.50
3654;BME280;70277;54.302;10.064;2024-01-06T08:28:39;101007.72;;;1.87;76.90
3654;BME280;70277;54.302;10.064;2024-01-06T08:31:05;101005.50;;;1.91;76.65
3654;BME280;70277;54.302;10.064;2024-01-06T08:33:32;101014.63;;;1.81;77.32
3654;BME280;70277;54.302;10.064;2024-01-06T08:35:59;101018.63;;;2.22;76.56
3654;BME280;70277;54.302;10.064;2024-01-06T08:38:26;101015.50;;;2.03;76.61
3654;BME280;70277;54.302;10.064;2024-01-06T08:40:53;101025.44;;;2.10;76.26
3654;BME280;70277;54.302;10.064;2024-01-06T08:43:20;101034.75;;;1.99;76.74
3654;BME280;70277;54.302;10.064;2024-01-06T08:45:47;101038.34;;;1.91;77.12
3654;BME280;70277;54.302;10.064;2024-01-06T08:48:14;101039.00;;;1.78;77.66
3654;BME280;70277;54.302;10.064;2024-01-06T08:50:42;101038.16;;;2.08;76.63
3654;BME280;70277;54.302;10.064;2024-01-06T08:53:08;101050.69;;;2.22;76.91
3654;BME280;70277;54.302;10.064;2024-01-06T08:55:35;101049.44;;;2.24;75.74
3654;BME280;70277;54.302;10.064;2024-01-06T08:58:02;101043.59;;;1.99;76.74
3654;BME280;70277;54.302;10.064;2024-01-06T09:00:28;101057.47;;;2.10;77.25
3654;BME280;70277;54.302;10.064;2024-01-06T09:02:56;101057.25;;;2.41;75.92
3654;BME280;70277;54.302;10.064;2024-01-06T09:05:22;101063.63;;;2.40;76.39
3654;BME280;70277;54.302;10.064;2024-01-06T09:07:49;101068.88;;;2.33;75.88
3654;BME280;70277;54.302;10.064;2024-01-06T09:10:21;101075.84;;;2.49;76.14
3654;BME280;70277;54.302;10.064;2024-01-06T09:12:47;101077.19;;;2.09;76.85
3654;BME280;70277;54.302;10.064;2024-01-06T09:15:14;101100.47;;;2.15;75.74
3654;BME280;70277;54.302;10.064;2024-01-06T09:17:41;101092.44;;;2.30;76.03
3654;BME280;70277;54.302;10.064;2024-01-06T09:20:08;101086.44;;;2.42;76.14
3654;BME280;70277;54.302;10.064;2024-01-06T09:22:35;101099.06;;;2.48;75.27
3654;BME280;70277;54.302;10.064;2024-01-06T09:25:01;101102.84;;;2.39;75.62
3654;BME280;70277;54.302;10.064;2024-01-06T09:27:28;101108.84;;;2.41;75.54
3654;BME280;70277;54.302;10.064;2024-01-06T09:29:54;101115.81;;;2.57;75.53
3654;BME280;70277;54.302;10.064;2024-01-06T09:32:21;101128.34;;;2.57;75.64
3654;BME280;70277;54.302;10.064;2024-01-06T09:34:49;101121.03;;;2.65;74.88
3654;BME280;70277;54.302;10.064;2024-01-06T09:37:16;101105.44;;;2.33;75.29
3654;BME280;70277;54.302;10.064;2024-01-06T09:39:44;101124.84;;;2.41;75.91
3654;BME280;70277;54.302;10.064;2024-01-06T09:42:11;101132.44;;;2.23;76.28
3654;BME280;70277;54.302;10.064;2024-01-06T09:44:38;101119.13;;;2.59;75.95
3654;BME280;70277;54.302;10.064;2024-01-06T09:47:05;101122.28;;;2.33;76.78
3654;BME280;70277;54.302;10.064;2024-01-06T09:49:32;101128.94;;;2.37;76.34
3654;BME280;70277;54.302;10.064;2024-01-06T09:52:01;101143.00;;;2.46;76.56
3654;BME280;70277;54.302;10.064;2024-01-06T09:54:30;101146.44;;;2.25;76.54
3654;BME280;70277;54.302;10.064;2024-01-06T09:57:01;101145.28;;;2.64;76.39
3654;BME280;70277;54.302;10.064;2024-01-06T09:59:30;101151.28;;;2.21;76.41
3654;BME280;70277;54.302;10.064;2024-01-06T10:02:01;101144.38;;;2.57;76.16
3654;BME280;70277;54.302;10.064;2024-01-06T10:04:30;101158.47;;;2.21;76.70
3654;BME280;70277;54.302;10.064;2024-01-06T10:06:57;101158.69;;;2.34;76.57
3654;BME280;70277;54.302;10.064;2024-01-06T10:09:27;101190.38;;;2.37;76.34
3654;BME280;70277;54.302;10.064;2024-01-06T10:11:55;101162.69;;;2.74;75.49
3654;BME280;70277;54.302;10.064;2024-01-06T10:14:24;101171.28;;;2.40;76.12
3654;BME280;70277;54.302;10.064;2024-01-06T10:16:54;101160.03;;;2.30;76.19
3654;BME280;70277;54.302;10.064;2024-01-06T10:19:21;101165.75;;;2.57;75.78
3654;BME280;70277;54.302;10.064;2024-01-06T10:21:47;101163.19;;;2.48;75.68
3654;BME280;70277;54.302;10.064;2024-01-06T10:24:18;101165.75;;;2.27;76.06
3654;BME280;70277;54.302;10.064;2024-01-06T10:26:45;101161.53;;;2.33;76.05
3654;BME280;70277;54.302;10.064;2024-01-06T10:29:15;101167.59;;;2.12;76.19
3654;BME280;70277;54.302;10.064;2024-01-06T10:31:42;101176.25;;;2.43;76.39
3654;BME280;70277;54.302;10.064;2024-01-06T10:34:09;101171.66;;;2.08;76.43
3654;BME280;70277;54.302;10.064;2024-01-06T10:36:36;101184.19;;;2.52;76.00
3654;BME280;70277;54.302;10.064;2024-01-06T10:39:03;101166.84;;;2.47;76.18
3654;BME280;70277;54.302;10.064;2024-01-06T10:41:30;101181.25;;;2.46;76.27
3654;BME280;70277;54.302;10.064;2024-01-06T10:43:58;101180.41;;;2.61;75.23
3654;BME280;70277;54.302;10.064;2024-01-06T10:46:28;101187.56;;;2.60;76.08
3654;BME280;70277;54.302;10.064;2024-01-06T10:48:58;101188.16;;;2.41;76.62
3654;BME280;70277;54.302;10.064;2024-01-06T10:51:27;101196.16;;;2.56;75.62
3654;BME280;70277;54.302;10.064;2024-01-06T10:53:57;101182.44;;;2.44;76.46
3654;BME280;70277;54.302;10.064;2024-01-06T10:56:25;101195.41;;;2.32;76.73
3654;BME280;70277;54.302;10.064;2024-01-06T10:58:53;101196.16;;;2.56;76.54
3654;BME280;70277;54.302;10.064;2024-01-06T11:01:21;101199.53;;;2.79;75.77
3654;BME280;70277;54.302;10.064;2024-01-06T11:03:53;101199.28;;;2.44;76.31
3654;BME280;70277;54.302;10.064;2024-01-06T11:06:21;101199.94;;;2.46;76.36
3654;BME280;70277;54.302;10.064;2024-01-06T11:09:11;101207.22;;;2.53;76.27
3654;BME280;70277;54.302;10.064;2024-01-06T11:11:41;101203.59;;;2.60;76.36
3654;BME280;70277;54.302;10.064;2024-01-06T11:14:26;101195.13;;;2.71;75.66
3654;BME280;70277;54.302;10.064;2024-01-06T11:16:54;101217.91;;;2.53;76.16
3654;BME280;70277;54.302;10.064;2024-01-06T11:19:44;101200.16;;;2.96;75.12
3654;BME280;70277;54.302;10.064;2024-01-06T11:22:24;101206.47;;;2.59;76.43
3654;BME280;70277;54.302;10.064;2024-01-06T11:24:53;101215.94;;;2.76;76.08
3654;BME280;70277;54.302;10.064;2024-01-06T11:27:23;101210.38;;;2.92;75.10
3654;BME280;70277;54.302;10.064;2024-01-06T11:29:54;101204.81;;;2.58;75.79
3654;BME280;70277;54.302;10.064;2024-01-06T11:32:31;101214.94;;;2.47;75.61
3654;BME280;70277;54.302;10.064;2024-01-06T11:35:13;101214.94;;;2.77;75.65
3654;BME280;70277;54.302;10.064;2024-01-06T11:40:36;101209.78;;;2.61;76.16
3654;BME280;70277;54.302;10.064;2024-01-06T11:43:04;101205.44;;;2.45;76.41
3654;BME280;70277;54.302;10.064;2024-01-06T11:45:33;101213.56;;;2.66;76.17
3654;BME280;70277;54.302;10.064;2024-01-06T11:48:02;101216.63;;;2.48;76.40
3654;BME280;70277;54.302;10.064;2024-01-06T11:50:31;101207.22;;;2.53;76.44
3654;BME280;70277;54.302;10.064;2024-01-06T11:52:59;101217.69;;;2.69;76.02
3654;BME280;70277;54.302;10.064;2024-01-06T11:55:26;101224.34;;;2.73;74.66
3654;BME280;70277;54.302;10.064;2024-01-06T11:57:59;101221.47;;;2.45;75.68
3654;BME280;70277;54.302;10.064;2024-01-06T12:00:30;101222.94;;;2.77;75.18
3654;BME280;70277;54.302;10.064;2024-01-06T12:02:58;101229.69;;;2.73;74.62
3654;BME280;70277;54.302;10.064;2024-01-06T12:05:25;101232.72;;;2.85;74.66
3654;BME280;70277;54.302;10.064;2024-01-06T12:07:54;101245.53;;;2.60;75.08
3654;BME280;70277;54.302;10.064;2024-01-06T12:10:22;101236.03;;;2.57;74.90
3654;BME280;70277;54.302;10.064;2024-01-06T12:13:00;101234.94;;;2.37;75.73
3654;BME280;70277;54.302;10.064;2024-01-06T12:15:28;101232.28;;;2.52;74.30
3654;BME280;70277;54.302;10.064;2024-01-06T12:17:55;101235.66;;;2.60;73.88
3654;BME280;70277;54.302;10.064;2024-01-06T12:20:23;101250.13;;;2.36;75.16
3654;BME280;70277;54.302;10.064;2024-01-06T12:22:51;101236.53;;;2.61;75.24
3654;BME280;70277;54.302;10.064;2024-01-06T12:25:21;101240.91;;;2.54;74.57
3654;BME280;70277;54.302;10.064;2024-01-06T12:27:48;101230.59;;;2.50;75.33
3654;BME280;70277;54.302;10.064;2024-01-06T12:30:21;101240.19;;;2.74;74.62
3654;BME280;70277;54.302;10.064;2024-01-06T12:32:49;101233.47;;;2.49;74.46
3654;BME280;70277;54.302;10.064;2024-01-06T12:35:16;101233.66;;;2.62;74.96
3654;BME280;70277;54.302;10.064;2024-01-06T12:37:43;101232.53;;;2.71;74.45
3654;BME280;70277;54.302;10.064;2024-01-06T12:40:12;101246.25;;;2.68;74.21
3654;BME280;70277;54.302;10.064;2024-01-06T12:42:39;101239.28;;;2.67;74.55
3654;BME280;70277;54.302;10.064;2024-01-06T12:45:06;101243.34;;;2.48;74.42
3654;BME280;70277;54.302;10.064;2024-01-06T12:47:33;101247.09;;;2.69;75.59
3654;BME280;70277;54.302;10.064;2024-01-06T12:50:00;101243.13;;;2.35;75.73
3654;BME280;70277;54.302;10.064;2024-01-06T12:52:27;101235.03;;;2.43;75.22
3654;BME280;70277;54.302;10.064;2024-01-06T12:54:53;101243.22;;;2.57;76.13
3654;BME280;70277;54.302;10.064;2024-01-06T12:57:20;101241.13;;;2.67;74.78
3654;BME280;70277;54.302;10.064;2024-01-06T12:59:47;101250.03;;;2.44;75.18
3654;BME280;70277;54.302;10.064;2024-01-06T13:02:13;101251.81;;;2.67;75.73
3654;BME280;70277;54.302;10.064;2024-01-06T13:04:40;101251.59;;;2.54;76.05